createdAt,value
2023-05-12T00:02:14.377Z,91489.56
2023-05-12T00:04:41.443Z,91479.81
2023-05-12T00:07:08.076Z,91479.09
2023-05-12T00:09:34.673Z,91475.59
2023-05-12T00:12:02.297Z,91482.25
2023-05-12T00:14:28.849Z,91486.28
2023-05-12T00:16:55.400Z,91483.53
2023-05-12T00:19:22.028Z,91484.84
2023-05-12T00:21:48.523Z,91482.09
2023-05-12T00:24:15.130Z,91486.28
2023-05-12T00:26:41.608Z,91484.84
2023-05-12T00:29:08.178Z,91484.84
2023-05-12T00:31:34.754Z,91483.38
2023-05-12T00:34:01.280Z,91484.09
2023-05-12T00:36:28.084Z,91475.09
2023-05-12T00:38:54.654Z,91483.38
2023-05-12T00:41:21.125Z,91481.91
2023-05-12T00:43:47.710Z,91473.06
2023-05-12T00:46:14.469Z,91470.13
2023-05-12T00:48:41.188Z,91472.31
2023-05-12T00:51:08.645Z,91477.84
2023-05-12T00:53:48.532Z,91473.06
2023-05-12T00:56:18.899Z,91470.88
2023-05-12T00:58:45.986Z,91472.31
2023-05-12T01:01:12.934Z,91471.03
2023-05-12T01:03:39.798Z,91470.13
2023-05-12T01:06:13.547Z,91476.41
2023-05-12T01:08:42.169Z,91479.00
2023-05-12T01:11:08.859Z,91477.69
2023-05-12T01:13:36.100Z,91474.91
2023-05-12T01:16:04.234Z,91474.91
2023-05-12T01:18:34.261Z,91477.69
2023-05-12T01:21:01.995Z,91474.22
2023-05-12T01:23:37.574Z,91470.72
2023-05-12T01:26:08.593Z,91473.47
2023-05-12T01:28:36.116Z,91477.69
2023-05-12T01:31:05.456Z,91469.41
2023-05-12T01:33:34.046Z,91464.63
2023-05-12T01:36:00.566Z,91465.34
2023-05-12T01:38:27.595Z,91473.81
2023-05-12T01:40:54.079Z,91462.75
2023-05-12T01:43:22.153Z,91469.72
2023-05-12T01:45:48.960Z,91461.44
2023-05-12T01:48:15.536Z,91461.63
2023-05-12T01:50:42.506Z,91464.56
2023-05-12T01:53:10.576Z,91466.00
2023-05-12T01:55:37.072Z,91468.78
2023-05-12T01:58:03.647Z,91464.56
2023-05-12T02:00:30.149Z,91471.53
2023-05-12T02:02:56.914Z,91464.56
2023-05-12T02:05:23.562Z,91470.81
2023-05-12T02:07:50.159Z,91463.25
2023-05-12T02:10:16.898Z,91467.50
2023-05-12T02:12:43.512Z,91468.94
2023-05-12T02:15:10.236Z,91458.63
2023-05-12T02:17:36.844Z,91468.94
2023-05-12T02:20:05.349Z,91471.88
2023-05-12T02:22:31.899Z,91470.41
2023-05-12T02:24:58.391Z,91466.91
2023-05-12T02:27:24.942Z,91467.50
2023-05-12T02:29:51.405Z,91464.72
2023-05-12T02:32:17.947Z,91466.00
2023-05-12T02:34:44.414Z,91470.41
2023-05-12T02:37:10.930Z,91463.41
2023-05-12T02:39:37.392Z,91462.72
2023-05-12T02:42:04.201Z,91463.41
2023-05-12T02:44:30.684Z,91464.16
2023-05-12T02:46:58.045Z,91461.22
2023-05-12T02:49:24.630Z,91464.00
2023-05-12T02:51:51.093Z,91463.41
2023-05-12T02:54:17.623Z,91459.38
2023-05-12T02:56:44.122Z,91457.91
2023-05-12T02:59:10.801Z,91448.34
2023-05-12T03:01:37.353Z,91455.31
2023-05-12T03:04:03.923Z,91457.50
2023-05-12T03:06:30.721Z,91456.78
2023-05-12T03:08:57.237Z,91456.78
2023-05-12T03:11:23.708Z,91460.81
2023-05-12T03:13:50.166Z,91459.38
2023-05-12T03:16:19.585Z,91464.16
2023-05-12T03:18:46.424Z,91456.44
2023-05-12T03:21:13.145Z,91459.22
2023-05-12T03:23:39.664Z,91473.00
2023-05-12T03:26:06.284Z,91463.09
2023-05-12T03:28:33.210Z,91468.59
2023-05-12T03:30:59.723Z,91460.16
2023-05-12T03:33:26.251Z,91464.22
2023-05-12T03:35:52.731Z,91470.88
2023-05-12T03:38:19.189Z,91463.88
2023-05-12T03:40:46.629Z,91467.22
2023-05-12T03:43:13.149Z,91465.78
2023-05-12T03:45:39.653Z,91465.03
2023-05-12T03:48:07.116Z,91469.41
2023-05-12T03:50:33.704Z,91474.91
2023-05-12T03:53:01.135Z,91470.72
2023-05-12T03:55:27.615Z,91456.19
2023-05-12T03:57:54.084Z,91465.03
2023-05-12T04:00:20.990Z,91459.34
2023-05-12T04:02:47.706Z,91460.66
2023-05-12T04:05:14.465Z,91460.66
2023-05-12T04:07:40.944Z,91454.97
2023-05-12T04:10:08.331Z,91460.50
2023-05-12T04:12:34.825Z,91458.47
2023-05-12T04:15:01.687Z,91465.44
2023-05-12T04:17:28.180Z,91467.47
2023-05-12T04:19:54.712Z,91457.72
2023-05-12T04:22:22.772Z,91463.25
2023-05-12T04:24:50.758Z,91463.09
2023-05-12T04:27:17.268Z,91463.09
2023-05-12T04:29:43.774Z,91465.09
2023-05-12T04:32:10.438Z,91465.84
2023-05-12T04:34:39.337Z,91467.72
2023-05-12T04:37:05.838Z,91469.75
2023-05-12T04:39:32.373Z,91462.22
2023-05-12T04:42:01.357Z,91472.50
2023-05-12T04:44:28.037Z,91471.03
2023-05-12T04:46:56.388Z,91478.03
2023-05-12T04:49:23.031Z,91478.03
2023-05-12T04:51:49.547Z,91474.38
2023-05-12T04:54:16.124Z,91483.53
2023-05-12T04:56:42.604Z,91476.56
2023-05-12T04:59:09.061Z,91476.56
2023-05-12T05:01:35.724Z,91472.34
2023-05-12T05:04:02.659Z,91482.06
2023-05-12T05:06:29.162Z,91477.13
2023-05-12T05:08:56.025Z,91483.22
2023-05-12T05:11:23.118Z,91475.34
2023-05-12T05:13:49.698Z,91475.50
2023-05-12T05:16:16.292Z,91474.78
2023-05-12T05:18:46.402Z,91470.72
2023-05-12T05:21:16.237Z,91479.00
2023-05-12T05:23:42.951Z,91477.69
2023-05-12T05:26:09.894Z,91482.47
2023-05-12T05:28:37.359Z,91479.56
2023-05-12T05:31:03.925Z,91479.66
2023-05-12T05:33:30.443Z,91483.69
2023-05-12T05:35:57.233Z,91485.16
2023-05-12T05:38:23.809Z,91485.16
2023-05-12T05:40:53.758Z,91489.53
2023-05-12T05:43:20.944Z,91484.75
2023-05-12T05:45:49.751Z,91491.00
2023-05-12T05:48:16.502Z,91491.00
2023-05-12T05:50:43.259Z,91490.28
2023-05-12T05:53:09.782Z,91489.53
2023-05-12T05:55:36.271Z,91491.00
2023-05-12T05:58:02.735Z,91492.47
2023-05-12T06:00:29.498Z,91497.97
2023-05-12T06:02:56.185Z,91491.00
2023-05-12T06:05:22.982Z,91502.03
2023-05-12T06:07:49.632Z,91497.97
2023-05-12T06:10:16.124Z,91492.47
2023-05-12T06:12:43.279Z,91491.72
2023-05-12T06:15:10.437Z,91491.72
2023-05-12T06:17:36.965Z,91496.69
2023-05-12T06:20:05.283Z,91498.16
2023-05-12T06:22:32.009Z,91500.91
2023-05-12T06:24:58.521Z,91500.91
2023-05-12T06:27:25.074Z,91502.34
2023-05-12T06:29:51.999Z,91503.84
2023-05-12T06:32:19.065Z,91505.28
2023-05-12T06:34:45.706Z,91494.25
2023-05-12T06:37:12.301Z,91500.50
2023-05-12T06:39:38.830Z,91500.91
2023-05-12T06:42:05.561Z,91499.75
2023-05-12T06:44:32.050Z,91506.75
2023-05-12T06:46:59.210Z,91498.31
2023-05-12T06:49:25.770Z,91494.97
2023-05-12T06:51:52.266Z,91495.72
2023-05-12T06:54:18.790Z,91495.72
2023-05-12T06:56:45.358Z,91490.91
2023-05-12T06:59:12.611Z,91494.25
2023-05-12T07:01:39.293Z,91491.66
2023-05-12T07:04:06.002Z,91493.84
2023-05-12T07:06:34.458Z,91485.00
2023-05-12T07:09:01.062Z,91490.50
2023-05-12T07:11:27.537Z,91485.72
2023-05-12T07:13:54.104Z,91494.91
2023-05-12T07:16:20.732Z,91480.53
2023-05-12T07:18:47.408Z,91482.72
2023-05-12T07:21:14.077Z,91489.69
2023-05-12T07:23:40.778Z,91484.19
2023-05-12T07:26:07.790Z,91478.66
2023-05-12T07:28:36.561Z,91478.66
2023-05-12T07:31:04.214Z,91477.69
2023-05-12T07:33:31.424Z,91468.69
2023-05-12T07:35:58.227Z,91477.84
2023-05-12T07:38:24.893Z,91468.28
2023-05-12T07:40:51.477Z,91471.22
2023-05-12T07:43:18.025Z,91472.66
2023-05-12T07:45:45.537Z,91465.84
2023-05-12T07:48:13.378Z,91468.59
2023-05-12T07:50:40.248Z,91460.50
2023-05-12T07:53:06.967Z,91453.69
2023-05-12T07:55:33.785Z,91447.59
2023-05-12T07:58:00.570Z,91447.75
2023-05-12T08:00:27.102Z,91440.22
2023-05-12T08:02:54.084Z,91435.97
2023-05-12T08:05:21.259Z,91436.16
2023-05-12T08:07:47.942Z,91443.53
2023-05-12T08:10:15.683Z,91443.53
2023-05-12T08:12:42.374Z,91442.41
2023-05-12T08:15:09.774Z,91440.50
2023-05-12T08:17:36.448Z,91432.41
2023-05-12T08:20:06.863Z,91443.59
2023-05-12T08:22:33.445Z,91442.31
2023-05-12T08:24:59.994Z,91437.09
2023-05-12T08:27:26.610Z,91428.97
2023-05-12T08:29:53.171Z,91431.88
2023-05-12T08:32:19.841Z,91429.13
2023-05-12T08:34:46.629Z,91418.97
2023-05-12T08:37:13.459Z,91425.22
2023-05-12T08:39:40.448Z,91418.25
2023-05-12T08:42:30.069Z,91419.69
2023-05-12T08:44:57.237Z,91414.16
2023-05-12T08:47:25.754Z,91416.78
2023-05-12T08:50:00.927Z,91411.41
2023-05-12T08:52:33.679Z,91412.88
2023-05-12T08:55:02.447Z,91407.53
2023-05-12T08:57:30.120Z,91405.63
2023-05-12T08:59:59.350Z,91402.28
2023-05-12T09:02:37.663Z,91396.94
2023-05-12T09:05:08.764Z,91401.16
2023-05-12T09:07:38.393Z,91400.28
2023-05-12T09:10:08.510Z,91400.00
2023-05-12T09:12:37.875Z,91397.41
2023-05-12T09:15:11.766Z,91411.38
2023-05-12T09:17:38.401Z,91406.00
2023-05-12T09:20:09.819Z,91393.66
2023-05-12T09:22:39.759Z,91398.59
2023-05-12T09:25:19.717Z,91400.63
2023-05-12T09:27:48.028Z,91395.81
2023-05-12T09:30:15.564Z,91393.81
2023-05-12T09:32:42.177Z,91392.50
2023-05-12T09:35:13.027Z,91386.97
2023-05-12T09:37:43.231Z,91377.38
2023-05-12T09:40:11.508Z,91380.88
2023-05-12T09:42:38.451Z,91376.22
2023-05-12T09:45:06.836Z,91377.69
2023-05-12T09:47:38.105Z,91374.38
2023-05-12T09:50:07.149Z,91380.59
2023-05-12T09:52:38.871Z,91372.47
2023-05-12T09:55:06.793Z,91380.75
2023-05-12T09:57:39.386Z,91373.19
2023-05-12T10:00:16.959Z,91376.69
2023-05-12T10:02:55.782Z,91380.91
2023-05-12T10:05:22.828Z,91375.38
2023-05-12T10:07:51.417Z,91371.34
2023-05-12T10:10:20.769Z,91371.34
2023-05-12T10:12:48.943Z,91368.00
2023-05-12T10:15:17.463Z,91363.16
2023-05-12T10:17:44.462Z,91363.16
2023-05-12T10:20:12.564Z,91369.44
2023-05-12T10:22:40.655Z,91361.88
2023-05-12T10:25:10.968Z,91353.59
2023-05-12T10:27:38.069Z,91345.47
2023-05-12T10:30:06.253Z,91356.50
2023-05-12T10:32:33.460Z,91351.69
2023-05-12T10:35:10.470Z,91342.84
2023-05-12T10:37:37.682Z,91349.81
2023-05-12T10:40:05.050Z,91345.75
2023-05-12T10:42:40.552Z,91343.13
2023-05-12T10:45:27.815Z,91330.63
2023-05-12T10:48:06.930Z,91334.13
2023-05-12T10:50:36.284Z,91337.63
2023-05-12T10:53:03.059Z,91341.69
2023-05-12T10:55:35.422Z,91333.25
2023-05-12T10:58:20.635Z,91337.47
2023-05-12T11:00:50.919Z,91337.63
2023-05-12T11:03:25.402Z,91339.09
2023-05-12T11:06:04.931Z,91333.56
2023-05-12T11:08:32.648Z,91336.91
2023-05-12T11:10:59.461Z,91333.56
2023-05-12T11:13:26.292Z,91341.84
2023-05-12T11:15:52.913Z,91334.25
2023-05-12T11:18:23.223Z,91332.09
2023-05-12T11:20:50.930Z,91339.09
2023-05-12T11:23:28.933Z,91330.06
2023-05-12T11:25:56.463Z,91334.84
2023-05-12T11:28:23.074Z,91340.22
2023-05-12T11:30:55.286Z,91334.00
2023-05-12T11:33:23.097Z,91329.03
2023-05-12T11:35:50.469Z,91331.81
2023-05-12T11:38:18.421Z,91330.50
2023-05-12T11:40:45.088Z,91324.81
2023-05-12T11:43:13.126Z,91324.06
2023-05-12T11:45:39.672Z,91326.28
2023-05-12T11:48:12.060Z,91319.44
2023-05-12T11:50:43.363Z,91334.56
2023-05-12T11:53:12.344Z,91322.19
2023-05-12T11:55:51.130Z,91321.47
2023-05-12T11:58:22.534Z,91323.50
2023-05-12T12:00:49.149Z,91320.75
2023-05-12T12:03:16.740Z,91322.19
2023-05-12T12:06:00.965Z,91327.72
2023-05-12T12:08:27.654Z,91324.22
2023-05-12T12:10:54.247Z,91324.97
2023-05-12T12:13:25.327Z,91327.72
2023-05-12T12:15:52.654Z,91328.47
2023-05-12T12:18:19.435Z,91329.16
2023-05-12T12:20:46.851Z,91330.63
2023-05-12T12:23:13.392Z,91328.03
2023-05-12T12:25:39.902Z,91329.47
2023-05-12T12:28:06.414Z,91333.88
2023-05-12T12:30:33.947Z,91329.94
2023-05-12T12:33:00.725Z,91330.81
2023-05-12T12:35:27.273Z,91326.00
2023-05-12T12:37:53.841Z,91333.00
2023-05-12T12:40:20.463Z,91332.44
2023-05-12T12:42:47.236Z,91331.69
2023-05-12T12:45:13.823Z,91326.16
2023-05-12T12:47:40.457Z,91328.19
2023-05-12T12:50:09.625Z,91323.41
2023-05-12T12:52:37.966Z,91326.31
2023-05-12T12:55:06.238Z,91324.41
2023-05-12T12:57:32.746Z,91321.50
2023-05-12T12:59:59.289Z,91321.66
2023-05-12T13:02:25.915Z,91322.22
2023-05-12T13:04:52.493Z,91308.88
2023-05-12T13:07:19.026Z,91303.66
2023-05-12T13:09:45.499Z,91303.81
2023-05-12T13:12:12.020Z,91304.69
2023-05-12T13:14:38.628Z,91302.25
2023-05-12T13:17:05.294Z,91301.22
2023-05-12T13:19:31.833Z,91302.97
2023-05-12T13:21:58.315Z,91312.69
2023-05-12T13:24:25.060Z,91303.13
2023-05-12T13:26:51.673Z,91309.22
2023-05-12T13:29:18.594Z,91307.75
2023-05-12T13:31:46.426Z,91302.22
2023-05-12T13:34:13.877Z,91304.25
2023-05-12T13:36:40.947Z,91298.72
2023-05-12T13:39:10.092Z,91291.75
2023-05-12T13:41:37.162Z,91291.00
2023-05-12T13:44:03.835Z,91293.19
2023-05-12T13:46:30.396Z,91289.56
2023-05-12T13:48:56.953Z,91298.44
2023-05-12T13:51:23.927Z,91290.00
2023-05-12T13:53:50.670Z,91284.47
2023-05-12T13:56:17.429Z,91282.31
2023-05-12T13:58:44.333Z,91287.69
2023-05-12T14:01:11.718Z,91288.25
2023-05-12T14:03:38.228Z,91279.25
2023-05-12T14:06:05.166Z,91285.31
2023-05-12T14:08:31.701Z,91288.09
2023-05-12T14:10:58.769Z,91283.84
2023-05-12T14:13:26.208Z,91276.88
2023-05-12T14:15:53.896Z,91282.41
2023-05-12T14:18:20.940Z,91280.38
2023-05-12T14:20:47.787Z,91287.94
2023-05-12T14:23:14.389Z,91287.94
2023-05-12T14:25:41.133Z,91283.84
2023-05-12T14:28:07.822Z,91284.59
2023-05-12T14:30:35.320Z,91288.09
2023-05-12T14:33:02.633Z,91281.81
2023-05-12T14:35:29.533Z,91288.09
2023-05-12T14:37:56.698Z,91288.25
2023-05-12T14:40:23.450Z,91282.56
2023-05-12T14:42:50.022Z,91284.19
2023-05-12T14:45:16.663Z,91280.13
2023-05-12T14:47:43.216Z,91287.84
2023-05-12T14:50:10.492Z,91280.38
2023-05-12T14:52:38.597Z,91286.66
2023-05-12T14:55:12.493Z,91287.41
2023-05-12T14:57:39.493Z,91292.94
2023-05-12T15:00:11.655Z,91288.84
2023-05-12T15:02:40.768Z,91288.84
2023-05-12T15:05:08.752Z,91299.91
2023-05-12T15:07:35.816Z,91305.44
2023-05-12T15:10:02.451Z,91310.97
2023-05-12T15:12:29.007Z,91308.19
2023-05-12T15:15:01.073Z,91317.22
2023-05-12T15:17:28.469Z,91304.69
2023-05-12T15:19:55.831Z,91305.44
2023-05-12T15:22:22.566Z,91300.63
2023-05-12T15:24:49.093Z,91313.72
2023-05-12T15:27:15.626Z,91310.97
2023-05-12T15:29:42.173Z,91299.91
2023-05-12T15:32:08.688Z,91306.91
2023-05-12T15:34:35.400Z,91299.91
2023-05-12T15:37:01.977Z,91299.91
2023-05-12T15:39:28.543Z,91305.44
2023-05-12T15:41:55.092Z,91303.41
2023-05-12T15:44:21.613Z,91305.44
2023-05-12T15:46:48.265Z,91305.44
2023-05-12T15:49:14.782Z,91303.41
2023-05-12T15:51:41.312Z,91308.94
2023-05-12T15:54:09.481Z,91313.72
2023-05-12T15:56:36.531Z,91310.97
2023-05-12T15:59:05.161Z,91315.19
2023-05-12T16:01:31.951Z,91315.19
2023-05-12T16:03:58.676Z,91310.97
2023-05-12T16:06:25.572Z,91315.75
2023-05-12T16:08:53.188Z,91321.28
2023-05-12T16:11:19.633Z,91323.34
2023-05-12T16:13:46.180Z,91327.53
2023-05-12T16:16:12.774Z,91315.03
2023-05-12T16:18:40.118Z,91326.09
2023-05-12T16:21:07.166Z,91330.91
2023-05-12T16:23:33.651Z,91326.81
2023-05-12T16:26:00.181Z,91327.41
2023-05-12T16:28:26.993Z,91325.38
2023-05-12T16:30:53.454Z,91326.09
2023-05-12T16:33:19.941Z,91336.44
2023-05-12T16:35:46.610Z,91337.75
2023-05-12T16:38:13.497Z,91344.00
2023-05-12T16:40:39.989Z,91339.94
2023-05-12T16:43:06.502Z,91336.44
2023-05-12T16:45:33.030Z,91331.63
2023-05-12T16:47:59.889Z,91342.69
2023-05-12T16:50:26.485Z,91345.47
2023-05-12T16:52:53.726Z,91344.88
2023-05-12T16:55:20.785Z,91355.19
2023-05-12T16:57:47.598Z,91349.66
2023-05-12T17:00:14.877Z,91350.41
2023-05-12T17:02:41.550Z,91350.41
2023-05-12T17:05:08.405Z,91359.44
2023-05-12T17:07:37.949Z,91355.19
2023-05-12T17:10:04.706Z,91358.56
2023-05-12T17:12:31.435Z,91357.22
2023-05-12T17:15:06.958Z,91360.72
2023-05-12T17:17:34.752Z,91366.25
2023-05-12T17:20:01.627Z,91370.34
2023-05-12T17:22:28.322Z,91366.09
2023-05-12T17:24:54.826Z,91367.44
2023-05-12T17:27:21.562Z,91388.06
2023-05-12T17:29:48.143Z,91374.13
2023-05-12T17:32:14.690Z,91382.28
2023-05-12T17:34:41.351Z,91384.84
2023-05-12T17:37:07.849Z,91381.19
2023-05-12T17:39:34.368Z,91393.56
2023-05-12T17:42:00.893Z,91398.22
2023-05-12T17:44:27.512Z,91414.81
2023-05-12T17:46:54.268Z,91416.69
2023-05-12T17:49:20.791Z,91417.13
2023-05-12T17:51:49.345Z,91425.28
2023-05-12T17:54:15.846Z,91432.25
2023-05-12T17:56:42.709Z,91436.31
2023-05-12T17:59:09.190Z,91440.38
2023-05-12T18:01:36.438Z,91443.88
2023-05-12T18:04:03.125Z,91444.47
2023-05-12T18:06:30.413Z,91450.00
2023-05-12T18:08:56.995Z,91443.72
2023-05-12T18:11:23.591Z,91447.81
2023-05-12T18:13:51.899Z,91456.66
2023-05-12T18:16:28.032Z,91467.69
2023-05-12T18:18:55.864Z,91466.25
2023-05-12T18:21:22.443Z,91464.06
2023-05-12T18:23:48.915Z,91463.34
2023-05-12T18:26:15.432Z,91464.81
2023-05-12T18:28:41.940Z,91470.34
2023-05-12T18:31:15.834Z,91473.22
2023-05-12T18:33:45.800Z,91471.78
2023-05-12T18:36:12.927Z,91472.53
2023-05-12T18:38:39.520Z,91476.00
2023-05-12T18:41:06.121Z,91473.22
2023-05-12T18:43:32.754Z,91484.16
2023-05-12T18:45:59.309Z,91486.91
2023-05-12T18:48:25.919Z,91484.72
2023-05-12T18:50:52.504Z,91483.84
2023-05-12T18:53:19.137Z,91487.91
2023-05-12T18:55:45.644Z,91496.19
2023-05-12T18:58:12.170Z,91494.00
2023-05-12T19:00:38.783Z,91499.53
2023-05-12T19:03:05.308Z,91514.25
2023-05-12T19:05:32.005Z,91515.69
2023-05-12T19:07:58.591Z,91521.97
2023-05-12T19:10:25.180Z,91515.69
2023-05-12T19:12:51.748Z,91521.22
2023-05-12T19:15:18.578Z,91525.28
2023-05-12T19:17:45.323Z,91520.94
2023-05-12T19:20:12.036Z,91529.22
2023-05-12T19:22:38.690Z,91534.75
2023-05-12T19:25:06.479Z,91537.50
2023-05-12T19:27:33.033Z,91534.59
2023-05-12T19:30:02.207Z,91545.63
2023-05-12T19:32:28.932Z,91547.09
2023-05-12T19:34:56.056Z,91549.13
2023-05-12T19:37:22.950Z,91551.16
2023-05-12T19:39:50.147Z,91552.63
2023-05-12T19:42:16.633Z,91560.91
2023-05-12T19:44:43.226Z,91558.13
2023-05-12T19:47:09.839Z,91559.47
2023-05-12T19:49:36.423Z,91560.75
2023-05-12T19:52:04.280Z,91562.94
2023-05-12T19:54:30.810Z,91560.75
2023-05-12T19:56:57.667Z,91567.75
2023-05-12T19:59:24.618Z,91573.97
2023-05-12T20:01:51.465Z,91566.28
2023-05-12T20:04:18.161Z,91570.34
2023-05-12T20:06:44.679Z,91575.88
2023-05-12T20:09:11.231Z,91573.84
2023-05-12T20:11:37.828Z,91575.88
2023-05-12T20:14:04.313Z,91575.88
2023-05-12T20:16:31.008Z,91576.63
2023-05-12T20:18:57.591Z,91580.09
2023-05-12T20:21:24.188Z,91578.81
2023-05-12T20:23:50.734Z,91582.84
2023-05-12T20:26:17.268Z,91586.94
2023-05-12T20:28:43.825Z,91581.41
2023-05-12T20:31:10.389Z,91585.44
2023-05-12T20:33:36.911Z,91584.00
2023-05-12T20:36:03.872Z,91581.25
2023-05-12T20:38:30.414Z,91579.78
2023-05-12T20:40:56.925Z,91585.31
2023-05-12T20:43:23.451Z,91587.34
2023-05-12T20:45:49.971Z,91587.34
2023-05-12T20:48:16.510Z,91581.81
2023-05-12T20:50:43.746Z,91586.59
2023-05-12T20:53:10.319Z,91585.88
2023-05-12T20:55:36.890Z,91586.59
2023-05-12T20:58:03.505Z,91590.69
2023-05-12T21:00:30.022Z,91585.88
2023-05-12T21:02:58.044Z,91589.22
2023-05-12T21:05:24.700Z,91591.22
2023-05-12T21:07:51.410Z,91593.28
2023-05-12T21:10:18.723Z,91598.81
2023-05-12T21:12:45.378Z,91597.50
2023-05-12T21:15:12.054Z,91598.81
2023-05-12T21:17:39.535Z,91594.72
2023-05-12T21:20:10.458Z,91601.56
2023-05-12T21:22:38.033Z,91594.00
2023-05-12T21:25:05.149Z,91594.72
2023-05-12T21:27:31.785Z,91598.06
2023-05-12T21:29:58.347Z,91595.88
2023-05-12T21:32:25.010Z,91595.88
2023-05-12T21:34:51.624Z,91595.88
2023-05-12T21:37:18.128Z,91601.41
2023-05-12T21:39:44.600Z,91598.66
2023-05-12T21:42:11.096Z,91602.16
2023-05-12T21:44:37.609Z,91600.09
2023-05-12T21:47:04.398Z,91608.38
2023-05-12T21:49:31.045Z,91606.19
2023-05-12T21:51:57.533Z,91602.69
2023-05-12T21:54:24.162Z,91607.69
2023-05-12T21:56:50.783Z,91604.16
2023-05-12T21:59:17.902Z,91606.19
2023-05-12T22:01:44.392Z,91610.97
2023-05-12T22:04:11.024Z,91605.47
2023-05-12T22:06:37.647Z,91615.06
2023-05-12T22:09:05.293Z,91618.56
2023-05-12T22:11:31.780Z,91621.31
2023-05-12T22:13:58.271Z,91616.50
2023-05-12T22:16:31.183Z,91616.50
2023-05-12T22:19:05.462Z,91620.00
2023-05-12T22:21:32.406Z,91623.50
2023-05-12T22:23:58.867Z,91622.78
2023-05-12T22:26:25.483Z,91627.56
2023-05-12T22:28:51.942Z,91620.59
2023-05-12T22:31:18.548Z,91630.31
2023-05-12T22:33:45.125Z,91623.34
2023-05-12T22:36:11.626Z,91626.13
2023-05-12T22:38:38.176Z,91633.09
2023-05-12T22:41:04.750Z,91633.09
2023-05-12T22:43:31.222Z,91624.66
2023-05-12T22:45:57.709Z,91630.19
2023-05-12T22:48:24.250Z,91635.72
2023-05-12T22:50:54.097Z,91628.72
2023-05-12T22:53:20.719Z,91628.72
2023-05-12T22:55:47.258Z,91632.78
2023-05-12T22:58:13.920Z,91634.25
2023-05-12T23:00:40.580Z,91621.75
2023-05-12T23:03:07.429Z,91625.06
2023-05-12T23:05:34.038Z,91630.59
2023-05-12T23:08:02.822Z,91634.06
2023-05-12T23:10:29.359Z,91637.56
2023-05-12T23:12:55.899Z,91636.84
2023-05-12T23:15:22.403Z,91634.06
2023-05-12T23:17:48.972Z,91635.56
2023-05-12T23:20:15.488Z,91634.06
2023-05-12T23:22:42.128Z,91635.38
2023-05-12T23:25:09.267Z,91627.09
2023-05-12T23:27:36.949Z,91632.63
2023-05-12T23:30:03.458Z,91626.94
2023-05-12T23:32:30.106Z,91628.38
2023-05-12T23:34:56.713Z,91632.47
2023-05-12T23:37:24.569Z,91637.25
2023-05-12T23:39:51.337Z,91631.00
2023-05-12T23:42:17.851Z,91625.47
2023-05-12T23:44:44.387Z,91631.00
2023-05-12T23:47:10.872Z,91629.53
2023-05-12T23:49:37.449Z,91626.78
2023-05-12T23:52:04.173Z,91618.47
2023-05-12T23:54:30.894Z,91626.78
2023-05-12T23:56:57.462Z,91623.25
2023-05-12T23:59:23.965Z,91622.56
